Idaho Falls Regional Airport
KIDA : now visible

Airfield :











YOU CAN JOIN US ON...

 
LOGIN :

Register | Disclaimer

   EN    FR    IT 

 









Legend :    VFR   Marginal VFR   IFR   Intensive IFR   Very Intensive IFR
Visi :
Ceiling :
>= 8 km
>= 3000ft
5 to 8 km
1000 to 3000 ft
1500m to 5 km
500 to 1000 ft
800 to 1500m
200 to 500 ft
< 800m
< 200 ft
Symbols :   Thunderstorms  Fog  Heavy snow  Heavy precipitations  Wind > 20 kt






- Airport Elevation : 4744 ft
- IATA code : IDA


KIDA - Idaho Falls Regional

CURRENT METAR :
  • 201353Z 21009KT 10SM CLR 07/M03 A2998 RMK AO2 SLP140 T00671033

EXPIRED METARs :
  • 201253Z 22006KT 10SM CLR 02/M02 A2998 RMK AO2 SLP145 T00221022
  • 201153Z AUTO 23006KT 10SM CLR 00/M03 A2997 RMK AO2 SLP142 T00001033 10089 21006 53004
  • 201053Z AUTO 26004KT 10SM CLR 00/M03 A2996 RMK AO2 SLP138 T00001033
  • 200953Z AUTO 29003KT 10SM CLR 03/M02 A2995 RMK AO2 SLP129 T00281022

TAF KIDA
Valid from the 20 at 12:00 until the 21 at 12:00 UTC


201120Z 2012/2112 25008KT P6SM SCT080
FM201900 28010G18KT P6SM VCSH SCT060 BKN080
FM210300 33008KT P6SM BKN060
KZLC FIR / North America



MET'MAP, your aeronautical weather chart ! - Copyright ORBIFLY December 2007 - Disclaimer

ORBIFLY MET'MAP TEAM :

Programming & Development : Alexandra Zaïnal
Original concept : Baudouin d'Aumeries
Technical & hardware support : Manuel Goepfert
Assistance : Marc-Olivier Méhu




SOURCES & CREDITS :

   NOAA       Earth
Advisory